createdAt,value
2019-05-18T00:01:54.541Z,62.00
2019-05-18T00:04:19.042Z,61.92
2019-05-18T00:06:43.839Z,61.89
2019-05-18T00:09:08.553Z,61.85
2019-05-18T00:11:33.479Z,61.61
2019-05-18T00:13:58.095Z,61.66
2019-05-18T00:16:22.672Z,61.68
2019-05-18T00:18:47.285Z,61.75
2019-05-18T00:21:11.731Z,61.76
2019-05-18T00:23:36.275Z,61.67
2019-05-18T00:26:01.102Z,61.65
2019-05-18T00:28:25.726Z,61.54
2019-05-18T00:30:50.253Z,61.84
2019-05-18T00:33:14.723Z,61.82
2019-05-18T00:35:39.167Z,61.90
2019-05-18T00:38:03.633Z,61.86
2019-05-18T00:40:28.104Z,61.98
2019-05-18T00:42:52.547Z,62.17
2019-05-18T00:45:17.248Z,62.04
2019-05-18T00:47:42.463Z,62.41
2019-05-18T00:50:07.772Z,62.41
2019-05-18T00:52:32.230Z,62.55
2019-05-18T00:54:56.784Z,62.43
2019-05-18T00:57:21.241Z,62.63
2019-05-18T00:59:45.857Z,62.74
2019-05-18T01:02:10.302Z,62.81
2019-05-18T01:04:34.779Z,62.69
2019-05-18T01:06:59.283Z,62.98
2019-05-18T01:09:23.786Z,62.79
2019-05-18T01:11:48.300Z,62.85
2019-05-18T01:14:12.773Z,62.93
2019-05-18T01:16:37.362Z,62.78
2019-05-18T01:19:01.800Z,62.97
2019-05-18T01:21:26.477Z,63.09
2019-05-18T01:23:50.919Z,63.13
2019-05-18T01:26:15.468Z,63.33
2019-05-18T01:28:39.922Z,63.45
2019-05-18T01:31:04.558Z,63.44
2019-05-18T01:33:29.041Z,63.44
2019-05-18T01:35:53.622Z,63.41
2019-05-18T01:38:18.141Z,63.46
2019-05-18T01:40:42.695Z,63.61
2019-05-18T01:43:07.291Z,63.73
2019-05-18T01:45:31.841Z,63.86
2019-05-18T01:47:56.376Z,64.05
2019-05-18T01:50:20.873Z,64.14
2019-05-18T01:52:45.420Z,64.30
2019-05-18T01:55:10.639Z,63.95
2019-05-18T01:57:35.197Z,64.19
2019-05-18T01:59:59.645Z,64.15
2019-05-18T02:02:24.111Z,64.45
2019-05-18T02:04:48.570Z,64.40
2019-05-18T02:07:13.125Z,64.52
2019-05-18T02:09:37.651Z,64.68
2019-05-18T02:12:02.206Z,64.68
2019-05-18T02:14:26.741Z,64.87
2019-05-18T02:16:51.233Z,64.96
2019-05-18T02:19:15.763Z,64.96
2019-05-18T02:21:40.317Z,64.85
2019-05-18T02:24:04.918Z,65.11
2019-05-18T02:26:29.449Z,65.04
2019-05-18T02:28:54.081Z,65.24
2019-05-18T02:31:18.699Z,65.23
2019-05-18T02:33:43.318Z,65.23
2019-05-18T02:36:07.922Z,65.28
2019-05-18T02:38:32.457Z,65.34
2019-05-18T02:40:56.944Z,65.47
2019-05-18T02:43:21.485Z,65.64
2019-05-18T02:45:46.089Z,65.76
2019-05-18T02:48:10.696Z,65.77
2019-05-18T02:50:35.219Z,65.69
2019-05-18T02:52:59.768Z,66.01
2019-05-18T02:55:24.234Z,66.10
2019-05-18T02:57:48.780Z,66.16
2019-05-18T03:00:13.500Z,65.93
2019-05-18T03:02:38.035Z,66.06
2019-05-18T03:05:02.661Z,66.03
2019-05-18T03:07:27.115Z,66.34
2019-05-18T03:09:51.591Z,66.31
2019-05-18T03:12:16.161Z,66.37
2019-05-18T03:14:40.605Z,66.44
2019-05-18T03:17:05.172Z,66.37
2019-05-18T03:19:29.697Z,66.51
2019-05-18T03:21:54.164Z,66.51
2019-05-18T03:24:18.617Z,66.64
2019-05-18T03:26:43.077Z,66.49
2019-05-18T03:29:07.673Z,66.64
2019-05-18T03:31:32.128Z,66.58
2019-05-18T03:33:56.670Z,66.69
2019-05-18T03:36:21.387Z,66.69
2019-05-18T03:38:45.867Z,66.74
2019-05-18T03:41:10.382Z,66.45
2019-05-18T03:43:34.954Z,66.81
2019-05-18T03:45:59.484Z,66.76
2019-05-18T03:48:24.453Z,66.85
2019-05-18T03:50:49.774Z,66.99
2019-05-18T03:53:18.002Z,67.02
2019-05-18T03:55:40.635Z,66.89
2019-05-18T03:58:05.212Z,67.08
2019-05-18T04:00:29.668Z,67.06
2019-05-18T04:03:05.012Z,67.18
2019-05-18T04:05:29.591Z,66.88
2019-05-18T04:07:54.176Z,67.02
2019-05-18T04:10:26.741Z,67.08
2019-05-18T04:12:51.208Z,66.92
2019-05-18T04:15:15.733Z,66.89
2019-05-18T04:17:40.227Z,67.28
2019-05-18T04:20:08.538Z,67.34
2019-05-18T04:22:33.024Z,66.99
2019-05-18T04:24:57.542Z,67.13
2019-05-18T04:27:22.013Z,67.09
2019-05-18T04:29:46.556Z,67.16
2019-05-18T04:32:11.071Z,66.98
2019-05-18T04:34:35.587Z,67.11
2019-05-18T04:37:00.034Z,66.93
2019-05-18T04:39:24.521Z,67.03
2019-05-18T04:41:48.975Z,67.09
2019-05-18T04:44:13.515Z,66.97
2019-05-18T04:46:38.113Z,66.89
2019-05-18T04:49:02.614Z,66.96
2019-05-18T04:51:27.146Z,67.40
2019-05-18T04:53:51.656Z,67.20
2019-05-18T04:56:16.077Z,67.04
2019-05-18T04:58:40.561Z,67.04
2019-05-18T05:01:05.177Z,67.06
2019-05-18T05:03:29.665Z,66.95
2019-05-18T05:05:54.144Z,66.97
2019-05-18T05:08:18.611Z,66.98
2019-05-18T05:10:43.067Z,66.87
2019-05-18T05:13:07.608Z,66.85
2019-05-18T05:15:32.169Z,66.91
2019-05-18T05:17:56.691Z,67.15
2019-05-18T05:20:21.154Z,66.82
2019-05-18T05:22:47.514Z,66.65
2019-05-18T05:25:12.147Z,66.99
2019-05-18T05:27:36.606Z,66.98
2019-05-18T05:30:01.095Z,66.88
2019-05-18T05:32:25.665Z,66.60
2019-05-18T05:34:50.206Z,66.46
2019-05-18T05:37:14.728Z,66.16
2019-05-18T05:39:39.207Z,66.29
2019-05-18T05:42:03.664Z,66.55
2019-05-18T05:44:28.133Z,66.32
2019-05-18T05:46:52.594Z,66.07
2019-05-18T05:49:17.074Z,65.77
2019-05-18T05:51:41.598Z,66.03
2019-05-18T05:54:06.073Z,65.48
2019-05-18T05:56:30.520Z,65.02
2019-05-18T05:58:55.053Z,65.64
2019-05-18T06:01:19.493Z,65.53
2019-05-18T06:03:44.834Z,65.58
2019-05-18T06:06:09.274Z,66.05
2019-05-18T06:08:34.250Z,65.53
2019-05-18T06:10:58.758Z,64.99
2019-05-18T06:13:23.580Z,64.81
2019-05-18T06:15:48.140Z,64.57
2019-05-18T06:18:12.602Z,64.71
2019-05-18T06:20:50.533Z,64.97
2019-05-18T06:23:03.378Z,64.56
2019-05-18T06:25:27.887Z,64.49
2019-05-18T06:27:52.344Z,64.37
2019-05-18T06:30:17.724Z,64.32
2019-05-18T06:32:42.246Z,64.26
2019-05-18T06:35:06.955Z,64.00
2019-05-18T06:37:31.397Z,64.22
2019-05-18T06:39:55.987Z,65.69
2019-05-18T06:42:20.436Z,64.43
2019-05-18T06:44:45.006Z,64.23
2019-05-18T06:47:09.604Z,63.77
2019-05-18T06:49:34.069Z,63.11
2019-05-18T06:51:59.366Z,63.18
2019-05-18T06:54:23.990Z,63.65
2019-05-18T06:56:48.682Z,63.84
2019-05-18T06:59:16.466Z,63.28
2019-05-18T07:01:41.045Z,64.07
2019-05-18T07:04:05.600Z,63.09
2019-05-18T07:06:30.071Z,63.03
2019-05-18T07:08:54.529Z,62.81
2019-05-18T07:11:19.073Z,63.22
2019-05-18T07:13:43.535Z,62.29
2019-05-18T07:16:08.155Z,62.28
2019-05-18T07:18:32.611Z,62.31
2019-05-18T07:21:00.016Z,63.28
2019-05-18T07:23:24.559Z,63.09
2019-05-18T07:25:49.019Z,63.48
2019-05-18T07:28:13.468Z,63.14
2019-05-18T07:30:38.158Z,62.76
2019-05-18T07:33:02.612Z,62.94
2019-05-18T07:35:27.186Z,62.71
2019-05-18T07:37:51.712Z,62.72
2019-05-18T07:40:16.289Z,61.99
2019-05-18T07:42:40.888Z,61.84
2019-05-18T07:45:08.407Z,62.85
2019-05-18T07:47:32.928Z,61.01
2019-05-18T07:49:57.395Z,61.01
2019-05-18T07:52:21.901Z,60.52
2019-05-18T07:54:46.417Z,60.79
2019-05-18T07:57:10.888Z,60.77
2019-05-18T07:59:35.352Z,60.85
2019-05-18T08:01:59.828Z,61.41
2019-05-18T08:04:24.421Z,60.75
2019-05-18T08:06:48.977Z,60.75
2019-05-18T08:09:13.426Z,60.78
2019-05-18T08:11:37.914Z,59.94
2019-05-18T08:14:02.401Z,59.87
2019-05-18T08:16:26.855Z,59.75
2019-05-18T08:18:51.387Z,59.08
2019-05-18T08:21:17.085Z,59.94
2019-05-18T08:23:42.497Z,58.20
2019-05-18T08:26:06.978Z,58.12
2019-05-18T08:28:31.438Z,58.05
2019-05-18T08:30:55.940Z,57.83
2019-05-18T08:33:20.381Z,57.61
2019-05-18T08:35:44.841Z,57.07
2019-05-18T08:38:09.293Z,57.00
2019-05-18T08:40:33.780Z,57.63
2019-05-18T08:42:58.363Z,57.03
2019-05-18T08:45:22.949Z,55.20
2019-05-18T08:47:47.492Z,54.84
2019-05-18T08:50:13.259Z,55.13
2019-05-18T08:52:37.852Z,55.04
2019-05-18T08:55:02.476Z,55.81
2019-05-18T08:57:27.358Z,54.34
2019-05-18T08:59:51.902Z,54.50
2019-05-18T09:02:16.386Z,53.35
2019-05-18T09:04:40.822Z,52.85
2019-05-18T09:07:05.472Z,53.16
2019-05-18T09:09:30.024Z,53.24
2019-05-18T09:11:54.569Z,53.15
2019-05-18T09:14:19.083Z,52.42
2019-05-18T09:16:43.554Z,52.08
2019-05-18T09:19:07.990Z,51.59
2019-05-18T09:21:32.454Z,52.11
2019-05-18T09:23:56.904Z,51.52
2019-05-18T09:26:21.374Z,51.54
2019-05-18T09:28:45.839Z,51.28
2019-05-18T09:31:10.368Z,51.14
2019-05-18T09:33:34.887Z,50.87
2019-05-18T09:35:59.364Z,50.16
2019-05-18T09:38:23.806Z,50.09
2019-05-18T09:40:48.243Z,50.22
2019-05-18T09:43:12.727Z,49.47
2019-05-18T09:45:37.194Z,50.08
2019-05-18T09:48:01.653Z,49.82
2019-05-18T09:50:26.135Z,49.05
2019-05-18T09:52:50.650Z,49.20
2019-05-18T09:55:15.880Z,48.61
2019-05-18T09:57:40.341Z,48.32
2019-05-18T10:00:10.528Z,49.65
2019-05-18T10:02:35.049Z,48.28
2019-05-18T10:04:59.497Z,47.92
2019-05-18T10:07:24.020Z,47.29
2019-05-18T10:09:48.554Z,47.83
2019-05-18T10:12:13.016Z,46.75
2019-05-18T10:14:37.523Z,47.39
2019-05-18T10:17:02.315Z,47.52
2019-05-18T10:19:26.784Z,46.50
2019-05-18T10:21:51.325Z,46.06
2019-05-18T10:24:15.918Z,46.19
2019-05-18T10:26:40.355Z,45.72
2019-05-18T10:29:05.000Z,45.73
2019-05-18T10:31:29.512Z,45.47
2019-05-18T10:33:53.955Z,45.15
2019-05-18T10:36:18.388Z,44.07
2019-05-18T10:38:42.872Z,45.08
2019-05-18T10:41:07.456Z,44.12
2019-05-18T10:43:31.959Z,43.58
2019-05-18T10:45:56.452Z,43.58
2019-05-18T10:48:20.926Z,42.93
2019-05-18T10:50:45.431Z,42.17
2019-05-18T10:53:09.969Z,42.17
2019-05-18T10:55:34.685Z,43.00
2019-05-18T10:57:59.253Z,43.00
2019-05-18T11:00:23.830Z,43.19
2019-05-18T11:02:48.438Z,43.20
2019-05-18T11:05:13.638Z,42.00
2019-05-18T11:07:38.131Z,41.69
2019-05-18T11:10:02.662Z,41.69
2019-05-18T11:12:27.114Z,41.32
2019-05-18T11:14:51.745Z,40.51
2019-05-18T11:17:16.317Z,40.46
2019-05-18T11:19:40.845Z,40.32
2019-05-18T11:22:05.435Z,40.32
2019-05-18T11:24:29.889Z,40.10
2019-05-18T11:26:54.321Z,39.62
2019-05-18T11:29:22.750Z,40.00
2019-05-18T11:31:45.012Z,38.95
2019-05-18T11:34:09.535Z,39.18
2019-05-18T11:36:33.976Z,39.02
2019-05-18T11:38:58.591Z,38.57
2019-05-18T11:41:23.151Z,38.64
2019-05-18T11:43:47.626Z,39.29
2019-05-18T11:46:12.071Z,38.75
2019-05-18T11:48:36.622Z,39.12
2019-05-18T11:51:01.147Z,38.25
2019-05-18T11:53:25.706Z,38.21
2019-05-18T11:55:50.135Z,37.50
2019-05-18T11:58:14.715Z,37.48
2019-05-18T12:00:39.345Z,37.13
2019-05-18T12:03:03.946Z,37.36
2019-05-18T12:05:28.473Z,37.50
2019-05-18T12:07:52.996Z,37.19
2019-05-18T12:10:18.532Z,36.94
2019-05-18T12:12:43.232Z,36.75
2019-05-18T12:15:09.359Z,37.79
2019-05-18T12:17:33.872Z,36.81
2019-05-18T12:19:58.334Z,36.50
2019-05-18T12:22:22.748Z,35.62
2019-05-18T12:24:47.287Z,35.80
2019-05-18T12:27:11.733Z,36.38
2019-05-18T12:29:36.230Z,38.08
2019-05-18T12:32:00.670Z,38.50
2019-05-18T12:34:26.506Z,37.64
2019-05-18T12:36:50.937Z,36.39
2019-05-18T12:39:15.458Z,35.86
2019-05-18T12:41:39.970Z,35.46
2019-05-18T12:44:04.548Z,35.67
2019-05-18T12:46:29.139Z,35.87
2019-05-18T12:48:53.927Z,35.91
2019-05-18T12:51:18.397Z,35.74
2019-05-18T12:53:42.892Z,35.41
2019-05-18T12:56:07.454Z,35.84
2019-05-18T12:58:31.896Z,35.66
2019-05-18T13:00:56.373Z,35.81
2019-05-18T13:03:20.871Z,36.11
2019-05-18T13:05:45.344Z,35.88
2019-05-18T13:08:09.845Z,36.08
2019-05-18T13:10:34.333Z,35.96
2019-05-18T13:12:58.842Z,36.11
2019-05-18T13:15:24.342Z,36.29
2019-05-18T13:17:48.951Z,36.03
2019-05-18T13:20:14.360Z,35.86
2019-05-18T13:22:38.942Z,35.43
2019-05-18T13:25:04.755Z,35.76
2019-05-18T13:27:38.728Z,35.51
2019-05-18T13:29:55.370Z,34.88
2019-05-18T13:32:19.944Z,35.71
2019-05-18T13:34:44.456Z,34.86
2019-05-18T13:37:08.919Z,35.28
2019-05-18T13:39:33.484Z,35.27
2019-05-18T13:41:57.963Z,35.00
2019-05-18T13:44:22.415Z,35.15
2019-05-18T13:46:46.888Z,34.76
2019-05-18T13:49:11.329Z,34.24
2019-05-18T13:51:35.814Z,34.33
2019-05-18T13:54:00.270Z,34.39
2019-05-18T13:56:24.787Z,34.06
2019-05-18T13:58:49.242Z,35.03
2019-05-18T14:01:13.750Z,34.59
2019-05-18T14:03:38.263Z,34.31
2019-05-18T14:06:02.734Z,34.52
2019-05-18T14:08:27.215Z,34.26
2019-05-18T14:10:51.684Z,33.68
2019-05-18T14:13:16.138Z,33.31
2019-05-18T14:15:40.673Z,33.43
2019-05-18T14:18:05.221Z,34.02
2019-05-18T14:20:29.715Z,33.75
2019-05-18T14:22:54.181Z,34.64
2019-05-18T14:25:20.307Z,33.63
2019-05-18T14:27:44.988Z,34.11
2019-05-18T14:30:10.178Z,33.72
2019-05-18T14:32:34.714Z,34.43
2019-05-18T14:34:59.289Z,34.29
2019-05-18T14:37:23.749Z,33.68
2019-05-18T14:39:48.223Z,33.97
2019-05-18T14:42:12.767Z,34.01
2019-05-18T14:44:37.402Z,34.44
2019-05-18T14:47:01.869Z,35.24
2019-05-18T14:49:26.388Z,34.04
2019-05-18T14:51:50.867Z,33.91
2019-05-18T14:54:15.334Z,33.79
2019-05-18T14:56:39.760Z,34.67
2019-05-18T14:59:04.292Z,34.28
2019-05-18T15:01:28.744Z,34.68
2019-05-18T15:03:53.276Z,34.66
2019-05-18T15:06:17.741Z,34.67
2019-05-18T15:08:42.209Z,34.77
2019-05-18T15:11:06.786Z,35.24
2019-05-18T15:13:31.317Z,34.78
2019-05-18T15:15:55.763Z,34.96
2019-05-18T15:18:20.225Z,35.29
2019-05-18T15:20:44.662Z,34.45
2019-05-18T15:23:09.257Z,35.17
2019-05-18T15:25:49.331Z,34.47
2019-05-18T15:27:59.839Z,34.92
2019-05-18T15:30:24.417Z,36.60
2019-05-18T15:32:49.031Z,35.44
2019-05-18T15:35:13.865Z,34.73
2019-05-18T15:37:39.277Z,35.39
2019-05-18T15:40:04.294Z,35.05
2019-05-18T15:42:28.834Z,36.03
2019-05-18T15:44:53.303Z,35.54
2019-05-18T15:47:17.808Z,35.54
2019-05-18T15:49:42.337Z,35.60
2019-05-18T15:52:06.791Z,35.05
2019-05-18T15:54:31.256Z,35.38
2019-05-18T15:56:55.687Z,35.35
2019-05-18T15:59:20.175Z,35.31
2019-05-18T16:01:44.680Z,34.64
2019-05-18T16:04:09.233Z,34.13
2019-05-18T16:06:33.669Z,34.87
2019-05-18T16:08:58.305Z,34.98
2019-05-18T16:11:22.746Z,34.87
2019-05-18T16:13:49.157Z,34.78
2019-05-18T16:16:13.580Z,34.46
2019-05-18T16:18:38.049Z,34.60
2019-05-18T16:21:02.595Z,35.02
2019-05-18T16:23:27.087Z,34.17
2019-05-18T16:25:51.567Z,34.18
2019-05-18T16:28:16.117Z,35.09
2019-05-18T16:30:40.613Z,35.35
2019-05-18T16:33:05.204Z,34.30
2019-05-18T16:35:29.661Z,34.20
2019-05-18T16:37:54.192Z,33.99
2019-05-18T16:40:18.858Z,33.92
2019-05-18T16:42:46.355Z,33.83
2019-05-18T16:45:10.225Z,34.47
2019-05-18T16:47:34.660Z,34.73
2019-05-18T16:49:59.121Z,34.59
2019-05-18T16:52:23.560Z,34.30
2019-05-18T16:54:48.027Z,35.96
2019-05-18T16:57:12.454Z,35.76
2019-05-18T16:59:36.941Z,35.20
2019-05-18T17:02:01.436Z,36.07
2019-05-18T17:04:25.899Z,36.10
2019-05-18T17:06:50.492Z,36.59
2019-05-18T17:09:14.952Z,35.95
2019-05-18T17:11:39.404Z,35.90
2019-05-18T17:14:04.111Z,36.20
2019-05-18T17:16:28.630Z,36.41
2019-05-18T17:18:53.118Z,36.36
2019-05-18T17:21:17.646Z,36.46
2019-05-18T17:23:42.200Z,36.25
2019-05-18T17:26:06.741Z,35.92
2019-05-18T17:28:31.231Z,35.77
2019-05-18T17:30:55.741Z,35.97
2019-05-18T17:33:20.315Z,35.73
2019-05-18T17:35:59.446Z,35.98
2019-05-18T17:38:10.988Z,35.57
2019-05-18T17:40:35.608Z,35.95
2019-05-18T17:43:00.110Z,35.50
2019-05-18T17:45:24.719Z,35.65
2019-05-18T17:47:49.287Z,35.61
2019-05-18T17:50:14.707Z,35.82
2019-05-18T17:52:39.203Z,36.22
2019-05-18T17:55:05.011Z,35.96
2019-05-18T17:57:29.617Z,36.11
2019-05-18T17:59:54.074Z,36.25
2019-05-18T18:02:18.523Z,36.29
2019-05-18T18:04:42.989Z,36.28
2019-05-18T18:07:07.430Z,36.55
2019-05-18T18:09:31.917Z,36.83
2019-05-18T18:11:56.364Z,37.33
2019-05-18T18:14:20.965Z,37.29
2019-05-18T18:16:45.599Z,37.29
2019-05-18T18:19:10.050Z,37.29
2019-05-18T18:21:34.607Z,37.80
2019-05-18T18:23:59.123Z,38.05
2019-05-18T18:26:23.582Z,37.83
2019-05-18T18:28:48.045Z,38.65
2019-05-18T18:31:12.500Z,38.55
2019-05-18T18:33:37.001Z,38.79
2019-05-18T18:36:01.474Z,38.79
2019-05-18T18:38:25.987Z,39.04
2019-05-18T18:40:50.455Z,39.56
2019-05-18T18:43:15.747Z,39.65
2019-05-18T18:45:40.285Z,39.75
2019-05-18T18:48:04.894Z,39.94
2019-05-18T18:50:29.432Z,40.71
2019-05-18T18:52:53.881Z,41.10
2019-05-18T18:55:18.418Z,41.46
2019-05-18T18:57:42.926Z,41.51
2019-05-18T19:00:08.228Z,41.56
2019-05-18T19:02:32.739Z,41.83
2019-05-18T19:04:57.314Z,42.14
2019-05-18T19:07:21.825Z,42.56
2019-05-18T19:09:46.268Z,42.46
2019-05-18T19:12:10.787Z,42.95
2019-05-18T19:14:35.254Z,42.95
2019-05-18T19:16:59.829Z,42.60
2019-05-18T19:19:24.301Z,43.32
2019-05-18T19:21:48.846Z,43.43
2019-05-18T19:24:13.294Z,44.21
2019-05-18T19:26:37.870Z,44.54
2019-05-18T19:29:02.485Z,44.45
2019-05-18T19:31:27.004Z,45.33
2019-05-18T19:33:51.508Z,46.46
2019-05-18T19:36:15.978Z,46.50
2019-05-18T19:38:40.415Z,45.93
2019-05-18T19:41:05.003Z,46.02
2019-05-18T19:43:29.508Z,45.88
2019-05-18T19:45:54.059Z,45.98
2019-05-18T19:48:18.802Z,46.42
2019-05-18T19:50:43.612Z,47.18
2019-05-18T19:53:08.250Z,47.04
2019-05-18T19:55:32.740Z,46.91
2019-05-18T19:58:08.494Z,47.11
2019-05-18T20:00:25.734Z,47.77
2019-05-18T20:02:58.103Z,47.61
2019-05-18T20:05:22.566Z,47.96
2019-05-18T20:07:47.034Z,48.14
2019-05-18T20:10:13.543Z,48.11
2019-05-18T20:12:38.057Z,47.91
2019-05-18T20:15:02.519Z,47.80
2019-05-18T20:17:26.976Z,47.94
2019-05-18T20:19:51.551Z,48.06
2019-05-18T20:22:16.206Z,48.29
2019-05-18T20:24:40.631Z,48.18
2019-05-18T20:27:05.098Z,48.16
2019-05-18T20:29:29.538Z,48.28
2019-05-18T20:31:54.075Z,48.53
2019-05-18T20:34:18.690Z,48.83
2019-05-18T20:36:43.143Z,48.62
2019-05-18T20:39:07.845Z,49.19
2019-05-18T20:41:32.297Z,49.00
2019-05-18T20:43:56.761Z,48.93
2019-05-18T20:46:21.295Z,49.61
2019-05-18T20:48:45.741Z,50.23
2019-05-18T20:51:10.349Z,50.43
2019-05-18T20:53:34.787Z,50.30
2019-05-18T20:55:59.333Z,50.46
2019-05-18T20:58:38.272Z,50.62
2019-05-18T21:00:49.991Z,50.38
2019-05-18T21:03:14.493Z,50.82
2019-05-18T21:05:38.959Z,50.73
2019-05-18T21:08:03.428Z,50.90
2019-05-18T21:10:27.947Z,51.43
2019-05-18T21:12:52.415Z,51.07
2019-05-18T21:15:17.248Z,51.79
2019-05-18T21:17:41.705Z,51.51
2019-05-18T21:20:06.589Z,51.96
2019-05-18T21:22:31.045Z,52.07
2019-05-18T21:24:55.468Z,54.20
2019-05-18T21:27:20.054Z,53.17
2019-05-18T21:29:44.488Z,52.57
2019-05-18T21:32:08.962Z,52.86
2019-05-18T21:34:33.400Z,53.14
2019-05-18T21:36:57.870Z,53.42
2019-05-18T21:39:22.325Z,53.40
2019-05-18T21:41:46.884Z,53.40
2019-05-18T21:44:11.396Z,53.93
2019-05-18T21:46:38.964Z,54.00
2019-05-18T21:49:02.109Z,55.20
2019-05-18T21:51:26.544Z,54.96
2019-05-18T21:53:51.056Z,55.17
2019-05-18T21:56:15.516Z,54.73
2019-05-18T21:58:40.095Z,55.00
2019-05-18T22:01:05.543Z,54.66
2019-05-18T22:03:30.075Z,54.81
2019-05-18T22:05:54.532Z,54.91
2019-05-18T22:08:19.085Z,55.13
2019-05-18T22:10:43.601Z,54.94
2019-05-18T22:13:08.170Z,55.74
2019-05-18T22:15:32.579Z,55.50
2019-05-18T22:18:02.891Z,55.53
2019-05-18T22:20:27.356Z,55.27
2019-05-18T22:22:51.825Z,55.86
2019-05-18T22:25:16.296Z,56.49
2019-05-18T22:27:40.769Z,56.75
2019-05-18T22:30:05.956Z,56.82
2019-05-18T22:32:30.480Z,57.03
2019-05-18T22:34:54.988Z,57.21
2019-05-18T22:37:19.534Z,56.42
2019-05-18T22:39:43.973Z,56.66
2019-05-18T22:42:08.454Z,56.78
2019-05-18T22:44:32.874Z,56.60
2019-05-18T22:46:57.435Z,56.62
2019-05-18T22:49:21.867Z,56.92
2019-05-18T22:51:46.378Z,56.20
2019-05-18T22:54:10.839Z,56.88
2019-05-18T22:56:35.375Z,57.27
2019-05-18T22:58:59.997Z,57.30
2019-05-18T23:01:24.510Z,57.30
2019-05-18T23:03:51.663Z,57.80
2019-05-18T23:06:16.620Z,57.53
2019-05-18T23:08:41.082Z,57.65
2019-05-18T23:11:05.593Z,57.88
2019-05-18T23:13:30.196Z,57.35
2019-05-18T23:15:54.660Z,57.15
2019-05-18T23:18:19.192Z,57.57
2019-05-18T23:20:43.622Z,57.44
2019-05-18T23:23:08.093Z,57.76
2019-05-18T23:25:32.537Z,58.15
2019-05-18T23:27:57.004Z,58.08
2019-05-18T23:30:21.594Z,58.10
2019-05-18T23:32:46.053Z,58.31
2019-05-18T23:35:10.636Z,58.01
2019-05-18T23:37:35.092Z,58.54
2019-05-18T23:39:59.616Z,58.28
2019-05-18T23:42:24.063Z,58.59
2019-05-18T23:44:49.395Z,59.50
2019-05-18T23:47:13.848Z,59.44
2019-05-18T23:49:38.365Z,59.09
2019-05-18T23:52:02.821Z,58.68
2019-05-18T23:54:27.306Z,58.73
2019-05-18T23:56:51.758Z,58.75
2019-05-18T23:59:16.222Z,58.84
